sensor_id;sensor_type;location;lat;lon;timestamp;P1;durP1;ratioP1;P2;durP2;ratioP2
56997;SDS011;42890;44.244;22.530;2023-05-14T00:01:47;10.13;;;9.13;;
56997;SDS011;42890;44.244;22.530;2023-05-14T00:04:15;9.77;;;8.60;;
56997;SDS011;42890;44.244;22.530;2023-05-14T00:06:43;11.07;;;9.82;;
56997;SDS011;42890;44.244;22.530;2023-05-14T00:09:10;13.65;;;9.90;;
56997;SDS011;42890;44.244;22.530;2023-05-14T00:11:37;10.55;;;8.93;;
56997;SDS011;42890;44.244;22.530;2023-05-14T00:14:03;12.05;;;9.57;;
56997;SDS011;42890;44.244;22.530;2023-05-14T00:16:29;11.82;;;9.10;;
56997;SDS011;42890;44.244;22.530;2023-05-14T00:18:55;10.00;;;8.95;;
56997;SDS011;42890;44.244;22.530;2023-05-14T00:21:21;12.98;;;9.23;;
56997;SDS011;42890;44.244;22.530;2023-05-14T00:23:47;11.25;;;9.43;;
56997;SDS011;42890;44.244;22.530;2023-05-14T00:26:14;9.77;;;8.88;;
56997;SDS011;42890;44.244;22.530;2023-05-14T00:28:40;11.32;;;9.02;;
56997;SDS011;42890;44.244;22.530;2023-05-14T00:31:07;9.13;;;8.30;;
56997;SDS011;42890;44.244;22.530;2023-05-14T00:33:33;8.75;;;7.93;;
56997;SDS011;42890;44.244;22.530;2023-05-14T00:35:59;8.43;;;7.40;;
56997;SDS011;42890;44.244;22.530;2023-05-14T00:38:25;8.50;;;7.13;;
56997;SDS011;42890;44.244;22.530;2023-05-14T00:40:52;8.68;;;7.63;;
56997;SDS011;42890;44.244;22.530;2023-05-14T00:43:19;12.15;;;7.90;;
56997;SDS011;42890;44.244;22.530;2023-05-14T00:45:49;8.55;;;7.65;;
56997;SDS011;42890;44.244;22.530;2023-05-14T00:48:15;9.93;;;7.78;;
56997;SDS011;42890;44.244;22.530;2023-05-14T00:50:41;8.82;;;7.95;;
56997;SDS011;42890;44.244;22.530;2023-05-14T00:53:08;9.32;;;7.88;;
56997;SDS011;42890;44.244;22.530;2023-05-14T00:55:37;8.10;;;7.20;;
56997;SDS011;42890;44.244;22.530;2023-05-14T00:58:10;9.65;;;7.20;;
56997;SDS011;42890;44.244;22.530;2023-05-14T01:00:37;11.60;;;7.70;;
56997;SDS011;42890;44.244;22.530;2023-05-14T01:03:04;9.82;;;7.10;;
56997;SDS011;42890;44.244;22.530;2023-05-14T01:08:40;8.55;;;7.50;;
56997;SDS011;42890;44.244;22.530;2023-05-14T01:11:04;7.85;;;6.90;;
56997;SDS011;42890;44.244;22.530;2023-05-14T01:13:56;9.60;;;7.72;;
56997;SDS011;42890;44.244;22.530;2023-05-14T01:16:18;14.23;;;7.68;;
56997;SDS011;42890;44.244;22.530;2023-05-14T01:18:45;12.00;;;7.32;;
56997;SDS011;42890;44.244;22.530;2023-05-14T01:21:22;8.50;;;7.63;;
56997;SDS011;42890;44.244;22.530;2023-05-14T01:23:49;8.32;;;7.53;;
56997;SDS011;42890;44.244;22.530;2023-05-14T01:26:15;10.52;;;7.47;;
56997;SDS011;42890;44.244;22.530;2023-05-14T01:28:41;8.13;;;7.43;;
56997;SDS011;42890;44.244;22.530;2023-05-14T01:31:13;9.80;;;8.07;;
56997;SDS011;42890;44.244;22.530;2023-05-14T01:33:41;9.73;;;8.77;;
56997;SDS011;42890;44.244;22.530;2023-05-14T01:36:08;9.73;;;8.07;;
56997;SDS011;42890;44.244;22.530;2023-05-14T01:38:34;8.98;;;8.20;;
56997;SDS011;42890;44.244;22.530;2023-05-14T01:41:01;10.15;;;8.50;;
56997;SDS011;42890;44.244;22.530;2023-05-14T01:43:27;8.02;;;7.32;;
56997;SDS011;42890;44.244;22.530;2023-05-14T01:45:53;9.77;;;7.75;;
56997;SDS011;42890;44.244;22.530;2023-05-14T01:48:20;15.55;;;8.07;;
56997;SDS011;42890;44.244;22.530;2023-05-14T01:50:46;8.77;;;7.28;;
56997;SDS011;42890;44.244;22.530;2023-05-14T01:53:12;7.97;;;7.30;;
56997;SDS011;42890;44.244;22.530;2023-05-14T01:55:38;9.35;;;7.93;;
56997;SDS011;42890;44.244;22.530;2023-05-14T01:58:05;9.65;;;7.55;;
56997;SDS011;42890;44.244;22.530;2023-05-14T02:00:31;10.18;;;8.18;;
56997;SDS011;42890;44.244;22.530;2023-05-14T02:02:57;9.32;;;8.50;;
56997;SDS011;42890;44.244;22.530;2023-05-14T02:05:23;9.02;;;7.95;;
56997;SDS011;42890;44.244;22.530;2023-05-14T02:07:49;10.70;;;8.00;;
56997;SDS011;42890;44.244;22.530;2023-05-14T02:10:15;10.68;;;7.75;;
56997;SDS011;42890;44.244;22.530;2023-05-14T02:12:42;8.00;;;7.30;;
56997;SDS011;42890;44.244;22.530;2023-05-14T02:15:08;9.15;;;6.82;;
56997;SDS011;42890;44.244;22.530;2023-05-14T02:17:35;8.32;;;7.10;;
56997;SDS011;42890;44.244;22.530;2023-05-14T02:20:01;7.25;;;6.55;;
56997;SDS011;42890;44.244;22.530;2023-05-14T02:22:28;8.98;;;7.28;;
56997;SDS011;42890;44.244;22.530;2023-05-14T02:24:54;10.25;;;7.20;;
56997;SDS011;42890;44.244;22.530;2023-05-14T02:27:20;11.68;;;7.38;;
56997;SDS011;42890;44.244;22.530;2023-05-14T02:29:46;8.23;;;6.78;;
56997;SDS011;42890;44.244;22.530;2023-05-14T02:32:12;8.55;;;6.97;;
56997;SDS011;42890;44.244;22.530;2023-05-14T02:34:38;13.38;;;7.13;;
56997;SDS011;42890;44.244;22.530;2023-05-14T02:37:05;8.00;;;7.20;;
56997;SDS011;42890;44.244;22.530;2023-05-14T02:39:31;7.88;;;7.07;;
56997;SDS011;42890;44.244;22.530;2023-05-14T02:41:57;8.77;;;7.82;;
56997;SDS011;42890;44.244;22.530;2023-05-14T02:44:23;8.27;;;7.20;;
56997;SDS011;42890;44.244;22.530;2023-05-14T02:46:49;10.10;;;7.68;;
56997;SDS011;42890;44.244;22.530;2023-05-14T02:49:15;11.20;;;6.90;;
56997;SDS011;42890;44.244;22.530;2023-05-14T02:51:41;7.80;;;6.97;;
56997;SDS011;42890;44.244;22.530;2023-05-14T02:54:08;12.05;;;6.97;;
56997;SDS011;42890;44.244;22.530;2023-05-14T02:56:34;8.93;;;7.13;;
56997;SDS011;42890;44.244;22.530;2023-05-14T02:59:00;10.27;;;7.35;;
56997;SDS011;42890;44.244;22.530;2023-05-14T03:01:26;8.98;;;7.90;;
56997;SDS011;42890;44.244;22.530;2023-05-14T03:03:52;8.82;;;7.93;;
56997;SDS011;42890;44.244;22.530;2023-05-14T03:06:18;8.45;;;7.10;;
56997;SDS011;42890;44.244;22.530;2023-05-14T03:08:44;8.30;;;7.57;;
56997;SDS011;42890;44.244;22.530;2023-05-14T03:11:10;8.38;;;7.57;;
56997;SDS011;42890;44.244;22.530;2023-05-14T03:13:36;8.35;;;7.55;;
56997;SDS011;42890;44.244;22.530;2023-05-14T03:16:03;10.32;;;7.30;;
56997;SDS011;42890;44.244;22.530;2023-05-14T03:18:29;9.35;;;8.18;;
56997;SDS011;42890;44.244;22.530;2023-05-14T03:20:57;8.82;;;7.43;;
56997;SDS011;42890;44.244;22.530;2023-05-14T03:23:23;8.30;;;7.10;;
56997;SDS011;42890;44.244;22.530;2023-05-14T03:25:49;8.05;;;7.25;;
56997;SDS011;42890;44.244;22.530;2023-05-14T03:28:16;8.57;;;7.68;;
56997;SDS011;42890;44.244;22.530;2023-05-14T03:30:42;15.27;;;7.95;;
56997;SDS011;42890;44.244;22.530;2023-05-14T03:33:08;8.35;;;7.55;;
56997;SDS011;42890;44.244;22.530;2023-05-14T03:35:34;9.32;;;7.68;;
56997;SDS011;42890;44.244;22.530;2023-05-14T03:38:00;10.85;;;8.02;;
56997;SDS011;42890;44.244;22.530;2023-05-14T03:40:27;7.30;;;6.32;;
56997;SDS011;42890;44.244;22.530;2023-05-14T03:42:53;10.35;;;8.07;;
56997;SDS011;42890;44.244;22.530;2023-05-14T03:45:20;11.13;;;8.65;;
56997;SDS011;42890;44.244;22.530;2023-05-14T03:47:46;10.95;;;9.50;;
56997;SDS011;42890;44.244;22.530;2023-05-14T03:50:12;10.77;;;9.65;;
56997;SDS011;42890;44.244;22.530;2023-05-14T03:52:38;10.52;;;9.52;;
56997;SDS011;42890;44.244;22.530;2023-05-14T03:55:04;11.63;;;9.60;;
56997;SDS011;42890;44.244;22.530;2023-05-14T03:57:30;10.32;;;9.30;;
56997;SDS011;42890;44.244;22.530;2023-05-14T03:59:57;11.98;;;9.70;;
56997;SDS011;42890;44.244;22.530;2023-05-14T04:02:23;12.10;;;9.20;;
56997;SDS011;42890;44.244;22.530;2023-05-14T04:04:50;9.80;;;8.90;;
56997;SDS011;42890;44.244;22.530;2023-05-14T04:07:16;9.15;;;8.18;;
56997;SDS011;42890;44.244;22.530;2023-05-14T04:09:42;8.68;;;7.93;;
56997;SDS011;42890;44.244;22.530;2023-05-14T04:12:08;9.40;;;8.38;;
56997;SDS011;42890;44.244;22.530;2023-05-14T04:14:34;12.30;;;8.55;;
56997;SDS011;42890;44.244;22.530;2023-05-14T04:17:00;9.82;;;8.75;;
56997;SDS011;42890;44.244;22.530;2023-05-14T04:19:27;13.77;;;8.60;;
56997;SDS011;42890;44.244;22.530;2023-05-14T04:21:53;9.35;;;8.55;;
56997;SDS011;42890;44.244;22.530;2023-05-14T04:24:19;9.25;;;8.35;;
56997;SDS011;42890;44.244;22.530;2023-05-14T04:26:45;9.45;;;8.35;;
56997;SDS011;42890;44.244;22.530;2023-05-14T04:29:11;9.18;;;7.97;;
56997;SDS011;42890;44.244;22.530;2023-05-14T04:31:37;10.05;;;8.27;;
56997;SDS011;42890;44.244;22.530;2023-05-14T04:34:03;8.43;;;7.63;;
56997;SDS011;42890;44.244;22.530;2023-05-14T04:36:29;8.65;;;7.85;;
56997;SDS011;42890;44.244;22.530;2023-05-14T04:38:56;11.27;;;8.40;;
56997;SDS011;42890;44.244;22.530;2023-05-14T04:41:22;9.70;;;8.25;;
56997;SDS011;42890;44.244;22.530;2023-05-14T04:43:48;9.30;;;8.32;;
56997;SDS011;42890;44.244;22.530;2023-05-14T04:46:15;9.00;;;8.15;;
56997;SDS011;42890;44.244;22.530;2023-05-14T04:48:41;9.73;;;8.32;;
56997;SDS011;42890;44.244;22.530;2023-05-14T04:51:07;11.55;;;8.35;;
56997;SDS011;42890;44.244;22.530;2023-05-14T04:53:33;11.02;;;8.73;;
56997;SDS011;42890;44.244;22.530;2023-05-14T04:55:59;10.13;;;8.88;;
56997;SDS011;42890;44.244;22.530;2023-05-14T04:58:25;21.90;;;9.82;;
56997;SDS011;42890;44.244;22.530;2023-05-14T05:00:53;17.35;;;9.05;;
56997;SDS011;42890;44.244;22.530;2023-05-14T05:03:19;11.95;;;10.13;;
56997;SDS011;42890;44.244;22.530;2023-05-14T05:05:45;12.68;;;10.52;;
56997;SDS011;42890;44.244;22.530;2023-05-14T05:08:11;13.88;;;10.63;;
56997;SDS011;42890;44.244;22.530;2023-05-14T05:10:37;13.35;;;10.48;;
56997;SDS011;42890;44.244;22.530;2023-05-14T05:13:03;17.33;;;10.18;;
56997;SDS011;42890;44.244;22.530;2023-05-14T05:15:29;12.00;;;10.40;;
56997;SDS011;42890;44.244;22.530;2023-05-14T05:17:56;19.85;;;10.75;;
56997;SDS011;42890;44.244;22.530;2023-05-14T05:20:22;14.63;;;10.50;;
56997;SDS011;42890;44.244;22.530;2023-05-14T05:22:49;12.90;;;10.20;;
56997;SDS011;42890;44.244;22.530;2023-05-14T05:25:15;12.90;;;11.02;;
56997;SDS011;42890;44.244;22.530;2023-05-14T05:27:41;14.65;;;11.13;;
56997;SDS011;42890;44.244;22.530;2023-05-14T05:30:07;11.40;;;10.40;;
56997;SDS011;42890;44.244;22.530;2023-05-14T05:32:33;14.85;;;11.40;;
56997;SDS011;42890;44.244;22.530;2023-05-14T05:35:00;12.63;;;11.32;;
56997;SDS011;42890;44.244;22.530;2023-05-14T05:37:26;13.40;;;11.48;;
56997;SDS011;42890;44.244;22.530;2023-05-14T05:39:52;12.63;;;11.18;;
56997;SDS011;42890;44.244;22.530;2023-05-14T05:42:18;13.13;;;11.88;;
56997;SDS011;42890;44.244;22.530;2023-05-14T05:44:44;11.77;;;10.77;;
56997;SDS011;42890;44.244;22.530;2023-05-14T05:47:11;12.00;;;10.90;;
56997;SDS011;42890;44.244;22.530;2023-05-14T05:49:37;13.63;;;11.07;;
56997;SDS011;42890;44.244;22.530;2023-05-14T05:52:03;12.15;;;10.88;;
56997;SDS011;42890;44.244;22.530;2023-05-14T05:54:29;12.40;;;11.13;;
56997;SDS011;42890;44.244;22.530;2023-05-14T05:56:58;13.00;;;11.70;;
56997;SDS011;42890;44.244;22.530;2023-05-14T05:59:25;13.13;;;11.75;;
56997;SDS011;42890;44.244;22.530;2023-05-14T06:01:51;12.80;;;11.50;;
56997;SDS011;42890;44.244;22.530;2023-05-14T06:04:17;15.48;;;11.30;;
56997;SDS011;42890;44.244;22.530;2023-05-14T06:06:44;12.77;;;11.50;;
56997;SDS011;42890;44.244;22.530;2023-05-14T06:09:10;12.43;;;10.80;;
56997;SDS011;42890;44.244;22.530;2023-05-14T06:11:37;13.40;;;12.10;;
56997;SDS011;42890;44.244;22.530;2023-05-14T06:14:03;18.05;;;13.65;;
56997;SDS011;42890;44.244;22.530;2023-05-14T06:16:29;14.70;;;13.35;;
56997;SDS011;42890;44.244;22.530;2023-05-14T06:18:55;15.38;;;12.98;;
56997;SDS011;42890;44.244;22.530;2023-05-14T06:21:21;13.77;;;12.50;;
56997;SDS011;42890;44.244;22.530;2023-05-14T06:23:47;15.55;;;14.15;;
56997;SDS011;42890;44.244;22.530;2023-05-14T06:26:14;15.45;;;12.48;;
56997;SDS011;42890;44.244;22.530;2023-05-14T06:28:40;12.25;;;10.88;;
56997;SDS011;42890;44.244;22.530;2023-05-14T06:31:06;12.15;;;11.13;;
56997;SDS011;42890;44.244;22.530;2023-05-14T06:33:32;11.30;;;10.15;;
56997;SDS011;42890;44.244;22.530;2023-05-14T06:35:58;12.13;;;10.93;;
56997;SDS011;42890;44.244;22.530;2023-05-14T06:38:25;11.30;;;10.30;;
56997;SDS011;42890;44.244;22.530;2023-05-14T06:40:51;11.98;;;10.88;;
56997;SDS011;42890;44.244;22.530;2023-05-14T06:43:17;16.45;;;12.05;;
56997;SDS011;42890;44.244;22.530;2023-05-14T06:45:47;11.93;;;10.93;;
56997;SDS011;42890;44.244;22.530;2023-05-14T06:48:13;14.07;;;12.68;;
56997;SDS011;42890;44.244;22.530;2023-05-14T06:50:39;13.00;;;11.80;;
56997;SDS011;42890;44.244;22.530;2023-05-14T06:53:05;12.15;;;11.02;;
56997;SDS011;42890;44.244;22.530;2023-05-14T06:55:32;12.85;;;11.60;;
56997;SDS011;42890;44.244;22.530;2023-05-14T06:57:58;12.65;;;11.27;;
56997;SDS011;42890;44.244;22.530;2023-05-14T07:00:24;13.63;;;12.38;;
56997;SDS011;42890;44.244;22.530;2023-05-14T07:02:50;12.80;;;11.50;;
56997;SDS011;42890;44.244;22.530;2023-05-14T07:05:16;12.68;;;11.35;;
56997;SDS011;42890;44.244;22.530;2023-05-14T07:07:43;12.93;;;11.73;;
56997;SDS011;42890;44.244;22.530;2023-05-14T07:10:09;12.35;;;11.15;;
56997;SDS011;42890;44.244;22.530;2023-05-14T07:12:35;14.65;;;13.20;;
56997;SDS011;42890;44.244;22.530;2023-05-14T07:15:01;15.18;;;13.70;;
56997;SDS011;42890;44.244;22.530;2023-05-14T07:17:27;14.57;;;13.07;;
56997;SDS011;42890;44.244;22.530;2023-05-14T07:19:53;13.23;;;11.95;;
56997;SDS011;42890;44.244;22.530;2023-05-14T07:22:20;13.02;;;11.85;;
56997;SDS011;42890;44.244;22.530;2023-05-14T07:24:46;19.15;;;11.38;;
56997;SDS011;42890;44.244;22.530;2023-05-14T07:27:13;15.20;;;13.80;;
56997;SDS011;42890;44.244;22.530;2023-05-14T07:29:40;13.82;;;12.52;;
56997;SDS011;42890;44.244;22.530;2023-05-14T07:32:07;14.77;;;13.23;;
56997;SDS011;42890;44.244;22.530;2023-05-14T07:34:33;14.27;;;12.98;;
56997;SDS011;42890;44.244;22.530;2023-05-14T07:36:59;15.15;;;13.55;;
56997;SDS011;42890;44.244;22.530;2023-05-14T07:39:26;13.63;;;12.35;;
56997;SDS011;42890;44.244;22.530;2023-05-14T07:41:52;14.95;;;11.75;;
56997;SDS011;42890;44.244;22.530;2023-05-14T07:44:19;13.65;;;12.45;;
56997;SDS011;42890;44.244;22.530;2023-05-14T07:46:45;13.65;;;12.35;;
56997;SDS011;42890;44.244;22.530;2023-05-14T07:49:11;13.57;;;12.10;;
56997;SDS011;42890;44.244;22.530;2023-05-14T07:51:37;12.40;;;11.30;;
56997;SDS011;42890;44.244;22.530;2023-05-14T07:54:04;12.07;;;10.98;;
56997;SDS011;42890;44.244;22.530;2023-05-14T07:56:30;15.32;;;11.00;;
56997;SDS011;42890;44.244;22.530;2023-05-14T07:58:56;11.75;;;10.70;;
56997;SDS011;42890;44.244;22.530;2023-05-14T08:01:22;14.65;;;11.30;;
56997;SDS011;42890;44.244;22.530;2023-05-14T08:03:48;13.13;;;11.75;;
56997;SDS011;42890;44.244;22.530;2023-05-14T08:06:15;13.88;;;11.50;;
56997;SDS011;42890;44.244;22.530;2023-05-14T08:08:41;12.30;;;11.10;;
56997;SDS011;42890;44.244;22.530;2023-05-14T08:11:07;12.30;;;11.10;;
56997;SDS011;42890;44.244;22.530;2023-05-14T08:13:33;12.23;;;11.23;;
56997;SDS011;42890;44.244;22.530;2023-05-14T08:15:59;12.82;;;11.63;;
56997;SDS011;42890;44.244;22.530;2023-05-14T08:18:25;12.38;;;11.18;;
56997;SDS011;42890;44.244;22.530;2023-05-14T08:20:51;12.35;;;11.25;;
56997;SDS011;42890;44.244;22.530;2023-05-14T08:23:17;13.00;;;11.68;;
56997;SDS011;42890;44.244;22.530;2023-05-14T08:25:43;13.63;;;12.23;;
56997;SDS011;42890;44.244;22.530;2023-05-14T08:28:10;11.88;;;10.80;;
56997;SDS011;42890;44.244;22.530;2023-05-14T08:30:36;13.43;;;12.15;;
56997;SDS011;42890;44.244;22.530;2023-05-14T08:33:02;12.65;;;11.48;;
56997;SDS011;42890;44.244;22.530;2023-05-14T08:35:28;12.55;;;11.45;;
56997;SDS011;42890;44.244;22.530;2023-05-14T08:37:54;18.00;;;11.93;;
56997;SDS011;42890;44.244;22.530;2023-05-14T08:40:21;13.57;;;12.27;;
56997;SDS011;42890;44.244;22.530;2023-05-14T08:42:47;14.30;;;13.00;;
56997;SDS011;42890;44.244;22.530;2023-05-14T08:45:20;12.98;;;11.82;;
56997;SDS011;42890;44.244;22.530;2023-05-14T08:47:47;13.75;;;11.50;;
56997;SDS011;42890;44.244;22.530;2023-05-14T08:50:14;13.30;;;11.98;;
56997;SDS011;42890;44.244;22.530;2023-05-14T08:52:41;14.90;;;13.48;;
56997;SDS011;42890;44.244;22.530;2023-05-14T08:55:08;13.75;;;12.55;;
56997;SDS011;42890;44.244;22.530;2023-05-14T08:57:34;14.70;;;12.75;;
56997;SDS011;42890;44.244;22.530;2023-05-14T09:00:01;14.15;;;12.65;;
56997;SDS011;42890;44.244;22.530;2023-05-14T09:02:32;12.80;;;11.68;;
56997;SDS011;42890;44.244;22.530;2023-05-14T09:04:59;12.65;;;11.55;;
56997;SDS011;42890;44.244;22.530;2023-05-14T09:07:25;13.25;;;12.05;;
56997;SDS011;42890;44.244;22.530;2023-05-14T09:09:52;14.82;;;13.45;;
56997;SDS011;42890;44.244;22.530;2023-05-14T09:12:18;13.68;;;12.48;;
56997;SDS011;42890;44.244;22.530;2023-05-14T09:14:45;13.45;;;12.35;;
56997;SDS011;42890;44.244;22.530;2023-05-14T09:17:12;14.00;;;12.70;;
56997;SDS011;42890;44.244;22.530;2023-05-14T09:19:39;13.48;;;12.38;;
56997;SDS011;42890;44.244;22.530;2023-05-14T09:22:09;13.07;;;11.77;;
56997;SDS011;42890;44.244;22.530;2023-05-14T09:24:36;13.70;;;12.43;;
56997;SDS011;42890;44.244;22.530;2023-05-14T09:27:06;13.23;;;12.13;;
56997;SDS011;42890;44.244;22.530;2023-05-14T09:29:32;14.05;;;12.73;;
56997;SDS011;42890;44.244;22.530;2023-05-14T09:31:59;14.32;;;12.93;;
56997;SDS011;42890;44.244;22.530;2023-05-14T09:34:32;13.32;;;12.13;;
56997;SDS011;42890;44.244;22.530;2023-05-14T09:36:59;13.38;;;12.02;;
56997;SDS011;42890;44.244;22.530;2023-05-14T09:39:25;13.75;;;12.32;;
56997;SDS011;42890;44.244;22.530;2023-05-14T09:41:52;12.82;;;11.70;;
56997;SDS011;42890;44.244;22.530;2023-05-14T09:44:18;14.77;;;11.73;;
56997;SDS011;42890;44.244;22.530;2023-05-14T09:46:45;13.25;;;11.05;;
56997;SDS011;42890;44.244;22.530;2023-05-14T09:49:12;12.65;;;11.35;;
56997;SDS011;42890;44.244;22.530;2023-05-14T09:51:38;12.57;;;11.32;;
56997;SDS011;42890;44.244;22.530;2023-05-14T09:54:04;13.13;;;11.93;;
56997;SDS011;42890;44.244;22.530;2023-05-14T09:56:34;13.45;;;12.18;;
56997;SDS011;42890;44.244;22.530;2023-05-14T09:59:01;14.40;;;12.93;;
56997;SDS011;42890;44.244;22.530;2023-05-14T10:01:27;13.27;;;12.18;;
56997;SDS011;42890;44.244;22.530;2023-05-14T10:03:54;13.70;;;12.60;;
56997;SDS011;42890;44.244;22.530;2023-05-14T10:06:27;12.57;;;11.57;;
56997;SDS011;42890;44.244;22.530;2023-05-14T10:08:56;14.73;;;12.32;;
56997;SDS011;42890;44.244;22.530;2023-05-14T10:11:27;13.38;;;12.27;;
56997;SDS011;42890;44.244;22.530;2023-05-14T10:16:26;13.40;;;12.00;;
56997;SDS011;42890;44.244;22.530;2023-05-14T10:18:54;13.98;;;12.60;;
56997;SDS011;42890;44.244;22.530;2023-05-14T10:21:21;17.27;;;11.90;;
56997;SDS011;42890;44.244;22.530;2023-05-14T10:23:48;13.20;;;12.00;;
56997;SDS011;42890;44.244;22.530;2023-05-14T10:26:15;14.05;;;12.55;;
56997;SDS011;42890;44.244;22.530;2023-05-14T10:28:41;14.88;;;11.80;;
56997;SDS011;42890;44.244;22.530;2023-05-14T10:31:08;13.43;;;12.30;;
56997;SDS011;42890;44.244;22.530;2023-05-14T10:33:47;14.15;;;12.77;;
56997;SDS011;42890;44.244;22.530;2023-05-14T10:36:14;14.13;;;12.80;;
56997;SDS011;42890;44.244;22.530;2023-05-14T10:38:40;12.82;;;11.77;;
56997;SDS011;42890;44.244;22.530;2023-05-14T10:41:11;13.20;;;12.07;;
56997;SDS011;42890;44.244;22.530;2023-05-14T10:43:39;13.32;;;11.93;;
56997;SDS011;42890;44.244;22.530;2023-05-14T10:46:07;13.40;;;12.13;;
56997;SDS011;42890;44.244;22.530;2023-05-14T10:48:34;14.40;;;13.00;;
56997;SDS011;42890;44.244;22.530;2023-05-14T10:51:01;13.77;;;12.48;;
56997;SDS011;42890;44.244;22.530;2023-05-14T10:53:31;13.98;;;12.85;;
56997;SDS011;42890;44.244;22.530;2023-05-14T10:56:00;13.45;;;12.13;;
56997;SDS011;42890;44.244;22.530;2023-05-14T10:58:29;14.20;;;12.90;;
56997;SDS011;42890;44.244;22.530;2023-05-14T11:00:58;15.65;;;14.13;;
56997;SDS011;42890;44.244;22.530;2023-05-14T11:03:27;14.70;;;13.30;;
56997;SDS011;42890;44.244;22.530;2023-05-14T11:05:54;12.73;;;11.52;;
56997;SDS011;42890;44.244;22.530;2023-05-14T11:08:21;13.65;;;12.30;;
56997;SDS011;42890;44.244;22.530;2023-05-14T11:10:47;13.70;;;12.50;;
56997;SDS011;42890;44.244;22.530;2023-05-14T11:13:14;18.67;;;14.18;;
56997;SDS011;42890;44.244;22.530;2023-05-14T11:15:42;14.63;;;13.23;;
56997;SDS011;42890;44.244;22.530;2023-05-14T11:18:12;13.20;;;11.98;;
56997;SDS011;42890;44.244;22.530;2023-05-14T11:20:38;15.27;;;14.05;;
56997;SDS011;42890;44.244;22.530;2023-05-14T11:23:04;14.25;;;12.77;;
56997;SDS011;42890;44.244;22.530;2023-05-14T11:25:30;17.85;;;13.70;;
56997;SDS011;42890;44.244;22.530;2023-05-14T11:27:56;13.40;;;12.00;;
56997;SDS011;42890;44.244;22.530;2023-05-14T11:30:25;13.57;;;12.13;;
56997;SDS011;42890;44.244;22.530;2023-05-14T11:32:51;12.93;;;11.73;;
56997;SDS011;42890;44.244;22.530;2023-05-14T11:35:18;13.77;;;12.52;;
56997;SDS011;42890;44.244;22.530;2023-05-14T11:37:50;14.85;;;13.27;;
56997;SDS011;42890;44.244;22.530;2023-05-14T11:40:17;22.48;;;20.67;;
56997;SDS011;42890;44.244;22.530;2023-05-14T11:42:43;21.77;;;19.38;;
56997;SDS011;42890;44.244;22.530;2023-05-14T11:45:10;18.40;;;16.67;;
56997;SDS011;42890;44.244;22.530;2023-05-14T11:47:37;18.05;;;16.38;;
56997;SDS011;42890;44.244;22.530;2023-05-14T11:50:03;16.65;;;14.98;;
56997;SDS011;42890;44.244;22.530;2023-05-14T11:52:29;13.82;;;12.40;;
56997;SDS011;42890;44.244;22.530;2023-05-14T11:54:55;13.85;;;12.48;;
56997;SDS011;42890;44.244;22.530;2023-05-14T11:57:22;24.17;;;18.20;;
56997;SDS011;42890;44.244;22.530;2023-05-14T11:59:48;24.08;;;21.48;;
56997;SDS011;42890;44.244;22.530;2023-05-14T12:02:16;23.73;;;18.77;;
56997;SDS011;42890;44.244;22.530;2023-05-14T12:04:42;13.75;;;12.45;;
56997;SDS011;42890;44.244;22.530;2023-05-14T12:07:13;16.95;;;12.52;;
56997;SDS011;42890;44.244;22.530;2023-05-14T12:09:41;15.15;;;11.80;;
56997;SDS011;42890;44.244;22.530;2023-05-14T12:12:12;12.18;;;11.05;;
56997;SDS011;42890;44.244;22.530;2023-05-14T12:14:39;11.88;;;10.75;;
56997;SDS011;42890;44.244;22.530;2023-05-14T12:17:16;11.55;;;10.48;;
56997;SDS011;42890;44.244;22.530;2023-05-14T12:19:43;9.65;;;8.70;;
56997;SDS011;42890;44.244;22.530;2023-05-14T12:22:10;8.75;;;7.95;;
56997;SDS011;42890;44.244;22.530;2023-05-14T12:24:36;13.75;;;8.43;;
56997;SDS011;42890;44.244;22.530;2023-05-14T12:27:03;13.48;;;8.38;;
56997;SDS011;42890;44.244;22.530;2023-05-14T12:29:29;9.35;;;8.30;;
56997;SDS011;42890;44.244;22.530;2023-05-14T12:31:56;9.15;;;8.25;;
56997;SDS011;42890;44.244;22.530;2023-05-14T12:34:23;8.90;;;8.00;;
56997;SDS011;42890;44.244;22.530;2023-05-14T12:36:49;8.40;;;7.75;;
56997;SDS011;42890;44.244;22.530;2023-05-14T12:39:16;10.27;;;8.45;;
56997;SDS011;42890;44.244;22.530;2023-05-14T12:41:42;10.32;;;8.70;;
56997;SDS011;42890;44.244;22.530;2023-05-14T12:44:08;9.43;;;8.55;;
56997;SDS011;42890;44.244;22.530;2023-05-14T12:46:34;9.10;;;8.23;;
56997;SDS011;42890;44.244;22.530;2023-05-14T12:49:00;12.68;;;8.57;;
56997;SDS011;42890;44.244;22.530;2023-05-14T12:51:27;9.90;;;9.00;;
56997;SDS011;42890;44.244;22.530;2023-05-14T12:53:53;9.77;;;8.35;;
56997;SDS011;42890;44.244;22.530;2023-05-14T12:56:20;10.48;;;8.55;;
56997;SDS011;42890;44.244;22.530;2023-05-14T12:58:51;10.57;;;8.82;;
56997;SDS011;42890;44.244;22.530;2023-05-14T13:01:19;8.68;;;7.95;;
56997;SDS011;42890;44.244;22.530;2023-05-14T13:03:45;9.30;;;8.07;;
56997;SDS011;42890;44.244;22.530;2023-05-14T13:06:11;9.43;;;7.75;;
56997;SDS011;42890;44.244;22.530;2023-05-14T13:08:38;10.77;;;8.48;;
56997;SDS011;42890;44.244;22.530;2023-05-14T13:11:04;9.38;;;8.32;;
56997;SDS011;42890;44.244;22.530;2023-05-14T13:13:30;14.00;;;7.70;;
56997;SDS011;42890;44.244;22.530;2023-05-14T13:15:56;8.93;;;7.82;;
56997;SDS011;42890;44.244;22.530;2023-05-14T13:18:22;8.63;;;7.80;;
56997;SDS011;42890;44.244;22.530;2023-05-14T13:20:50;8.65;;;7.85;;
56997;SDS011;42890;44.244;22.530;2023-05-14T13:23:16;8.70;;;7.90;;
56997;SDS011;42890;44.244;22.530;2023-05-14T13:25:43;9.77;;;8.80;;
56997;SDS011;42890;44.244;22.530;2023-05-14T13:28:09;9.85;;;8.02;;
56997;SDS011;42890;44.244;22.530;2023-05-14T13:30:35;9.63;;;8.63;;
56997;SDS011;42890;44.244;22.530;2023-05-14T13:33:01;11.73;;;10.60;;
56997;SDS011;42890;44.244;22.530;2023-05-14T13:35:27;15.02;;;9.88;;
56997;SDS011;42890;44.244;22.530;2023-05-14T13:37:54;12.57;;;8.55;;
56997;SDS011;42890;44.244;22.530;2023-05-14T13:40:20;10.18;;;9.10;;
56997;SDS011;42890;44.244;22.530;2023-05-14T13:42:46;9.50;;;8.60;;
56997;SDS011;42890;44.244;22.530;2023-05-14T13:45:12;9.95;;;8.25;;
56997;SDS011;42890;44.244;22.530;2023-05-14T13:47:38;11.63;;;8.25;;
56997;SDS011;42890;44.244;22.530;2023-05-14T13:50:05;10.52;;;9.27;;
56997;SDS011;42890;44.244;22.530;2023-05-14T13:52:31;11.27;;;8.38;;
56997;SDS011;42890;44.244;22.530;2023-05-14T13:54:57;9.25;;;8.35;;
56997;SDS011;42890;44.244;22.530;2023-05-14T13:57:23;9.38;;;8.50;;
56997;SDS011;42890;44.244;22.530;2023-05-14T13:59:50;12.63;;;8.52;;
56997;SDS011;42890;44.244;22.530;2023-05-14T14:02:16;9.20;;;8.40;;
56997;SDS011;42890;44.244;22.530;2023-05-14T14:04:42;9.82;;;8.85;;
56997;SDS011;42890;44.244;22.530;2023-05-14T14:07:08;9.15;;;8.23;;
56997;SDS011;42890;44.244;22.530;2023-05-14T14:09:34;10.02;;;8.32;;
56997;SDS011;42890;44.244;22.530;2023-05-14T14:12:04;9.70;;;8.70;;
56997;SDS011;42890;44.244;22.530;2023-05-14T14:14:30;9.73;;;8.68;;
56997;SDS011;42890;44.244;22.530;2023-05-14T14:16:56;11.32;;;9.43;;
56997;SDS011;42890;44.244;22.530;2023-05-14T14:19:22;15.75;;;8.93;;
56997;SDS011;42890;44.244;22.530;2023-05-14T14:21:49;14.95;;;8.95;;